Hauptseite
METAR-TAF:

METAR-TAF

Flughäfen :

Prague, Tschechien

Breite: 50-12-59N, Länge: 014-23-42E, Höhe: 280 m

Beobachtung

Neuester Wetterbericht von vor 9 Stunden und 12 Minuten, um 14:07 UTC
Wind 11 kt aus Ost
Temperatur 1°C
Luftfeuchtigkeit 93%
Luftdruck 1012 hPa
Sichtweite: 4100 m
Aufgelockert bewölkt in der Höhe von 1100 ft
Geschlossene Wolkendecke in der Höhe von 4200 ft
Schnee leicht, feuchter Dunst

METAR: LKVO 201407Z 09011KT 4100 -SN BR SCT011 OVC042 01/00 Q1012

Zeit: 00:19 (23:19 UTC)


TAF: fehlend

Wetterbeobachtungen und Prognosen von mehr als 4000 Flughäfen (METAR und TAF Bericht).

Die verfügbaren Stationen werden durch gelbe und rote Markierungen auf der Karte dargestellt.

Führen Sie die Maus auf sie, um den Namen der Station zu sehen.

Darauf klicken, um die Beobachtung von Wetterbeobachtungen und Prognosen zu sehen.

Um die Karte zu ändern : klicken Sie auf den grünen Tasten mit einem schwarzen Kreuz Zum Vergrößern, auf den grünen Button mit einem Gedankenstrich zu verkleinern, oder auf die grünen Pfeile für benachbarte Karten.


METAR-TAF: